createdAt,value
2022-07-30T00:01:17.444Z,21.57
2022-07-30T00:03:44.389Z,21.53
2022-07-30T00:06:11.225Z,21.50
2022-07-30T00:08:37.955Z,21.53
2022-07-30T00:11:04.588Z,21.56
2022-07-30T00:13:31.328Z,21.49
2022-07-30T00:15:58.206Z,21.43
2022-07-30T00:18:24.928Z,21.42
2022-07-30T00:20:51.860Z,21.43
2022-07-30T00:23:18.655Z,21.46
2022-07-30T00:25:45.359Z,21.51
2022-07-30T00:28:12.186Z,21.49
2022-07-30T00:30:40.664Z,21.43
2022-07-30T00:33:08.307Z,21.32
2022-07-30T00:35:35.486Z,21.24
2022-07-30T00:38:02.215Z,21.17
2022-07-30T00:40:29.059Z,21.13
2022-07-30T00:42:56.021Z,21.17
2022-07-30T00:45:22.969Z,21.18
2022-07-30T00:47:50.077Z,21.21
2022-07-30T00:50:17.145Z,21.15
2022-07-30T00:52:44.529Z,21.10
2022-07-30T00:55:13.446Z,21.04
2022-07-30T00:57:40.816Z,20.97
2022-07-30T01:00:10.287Z,20.80
2022-07-30T01:02:37.385Z,20.74
2022-07-30T01:05:05.004Z,20.77
2022-07-30T01:07:31.802Z,20.79
2022-07-30T01:09:58.580Z,20.78
2022-07-30T01:12:26.807Z,20.78
2022-07-30T01:14:56.222Z,20.77
2022-07-30T01:17:22.969Z,20.79
2022-07-30T01:19:56.010Z,20.79
2022-07-30T01:22:26.582Z,20.77
2022-07-30T01:25:28.735Z,20.73
2022-07-30T01:27:59.795Z,20.69
2022-07-30T01:30:29.337Z,20.56
2022-07-30T01:32:57.485Z,20.48
2022-07-30T01:35:26.499Z,20.48
2022-07-30T01:37:56.002Z,20.45
2022-07-30T01:40:25.906Z,20.36
2022-07-30T01:42:58.291Z,20.33
2022-07-30T01:45:27.090Z,20.34
2022-07-30T01:47:54.647Z,20.31
2022-07-30T01:50:22.911Z,20.28
2022-07-30T01:52:51.965Z,20.27
2022-07-30T01:55:31.074Z,20.24
2022-07-30T01:57:59.283Z,20.22
2022-07-30T02:00:30.777Z,20.24
2022-07-30T02:02:58.194Z,20.35
2022-07-30T02:05:28.265Z,20.28
2022-07-30T02:08:03.671Z,20.22
2022-07-30T02:10:46.788Z,20.20
2022-07-30T02:13:22.018Z,20.21
2022-07-30T02:15:57.293Z,20.20
2022-07-30T02:18:40.910Z,20.21
2022-07-30T02:21:11.566Z,20.24
2022-07-30T02:23:44.724Z,20.20
2022-07-30T02:26:19.414Z,20.14
2022-07-30T02:28:49.938Z,20.12
2022-07-30T02:31:19.896Z,20.04
2022-07-30T02:33:49.745Z,20.01
2022-07-30T02:36:18.998Z,19.95
2022-07-30T02:38:48.142Z,19.80
2022-07-30T02:41:15.670Z,19.80
2022-07-30T02:43:43.131Z,19.78
2022-07-30T02:46:11.945Z,19.77
2022-07-30T02:49:12.383Z,19.80
2022-07-30T02:51:41.449Z,19.77
2022-07-30T02:54:08.830Z,19.73
2022-07-30T02:56:39.650Z,19.68
2022-07-30T02:59:07.382Z,19.57
2022-07-30T03:01:35.644Z,19.46
2022-07-30T03:04:04.918Z,19.37
2022-07-30T03:06:32.892Z,19.35
2022-07-30T03:09:01.258Z,19.33
2022-07-30T03:11:29.271Z,19.28
2022-07-30T03:13:56.547Z,19.27
2022-07-30T03:16:25.992Z,19.27
2022-07-30T03:18:55.999Z,19.25
2022-07-30T03:21:26.571Z,19.25
2022-07-30T03:23:55.622Z,19.21
2022-07-30T03:26:23.007Z,19.14
2022-07-30T03:28:50.638Z,19.07
2022-07-30T03:31:17.867Z,18.98
2022-07-30T03:33:45.691Z,18.94
2022-07-30T03:36:15.730Z,18.91
2022-07-30T03:38:43.589Z,18.92
2022-07-30T03:41:11.088Z,18.90
2022-07-30T03:43:40.372Z,18.82
2022-07-30T03:46:08.165Z,18.75
2022-07-30T03:48:39.421Z,18.72
2022-07-30T03:51:07.699Z,18.73
2022-07-30T03:53:34.586Z,18.70
2022-07-30T03:56:37.593Z,18.67
2022-07-30T03:59:21.653Z,18.75
2022-07-30T04:01:49.144Z,18.67
2022-07-30T04:04:24.830Z,18.59
2022-07-30T04:06:52.041Z,18.53
2022-07-30T04:09:19.776Z,18.50
2022-07-30T04:11:49.007Z,18.49
2022-07-30T04:14:21.042Z,18.47
2022-07-30T04:16:57.164Z,18.44
2022-07-30T04:19:30.227Z,18.44
2022-07-30T04:21:57.764Z,18.42
2022-07-30T04:24:26.140Z,18.36
2022-07-30T04:26:54.217Z,18.31
2022-07-30T04:29:24.674Z,18.33
2022-07-30T04:31:57.382Z,18.29
2022-07-30T04:34:49.202Z,18.28
2022-07-30T04:37:24.272Z,18.26
2022-07-30T04:39:54.261Z,18.28
2022-07-30T04:42:22.698Z,18.36
2022-07-30T04:45:00.337Z,18.41
2022-07-30T04:47:31.002Z,18.39
2022-07-30T04:50:30.650Z,18.40
2022-07-30T04:52:58.739Z,18.38
2022-07-30T04:55:33.466Z,18.43
2022-07-30T04:58:02.657Z,18.46
2022-07-30T05:00:37.717Z,18.45
2022-07-30T05:03:11.329Z,18.47
2022-07-30T05:05:40.822Z,18.46
2022-07-30T05:08:07.850Z,18.47
2022-07-30T05:10:34.917Z,18.50
2022-07-30T05:13:02.094Z,18.52
2022-07-30T05:15:37.170Z,18.55
2022-07-30T05:18:06.641Z,18.58
2022-07-30T05:20:36.962Z,18.57
2022-07-30T05:23:20.305Z,18.56
2022-07-30T05:25:58.819Z,18.59
2022-07-30T05:28:34.715Z,18.64
2022-07-30T05:31:10.839Z,18.65
2022-07-30T05:33:42.594Z,18.69
2022-07-30T05:36:15.485Z,18.75
2022-07-30T05:38:43.969Z,18.84
2022-07-30T05:41:32.027Z,18.93
2022-07-30T05:44:03.618Z,18.96
2022-07-30T05:46:31.403Z,18.98
2022-07-30T05:48:58.985Z,19.01
2022-07-30T05:51:25.807Z,19.08
2022-07-30T05:53:52.671Z,19.14
2022-07-30T05:56:25.736Z,19.19
2022-07-30T05:59:13.465Z,19.24
2022-07-30T06:01:59.164Z,19.28
2022-07-30T06:04:36.663Z,19.34
2022-07-30T06:07:06.334Z,19.37
2022-07-30T06:09:37.021Z,19.47
2022-07-30T06:12:07.558Z,19.53
2022-07-30T06:14:35.264Z,19.58
2022-07-30T06:17:03.560Z,19.65
2022-07-30T06:19:49.130Z,19.73
2022-07-30T06:22:16.768Z,19.79
2022-07-30T06:24:47.878Z,19.87
2022-07-30T06:27:21.190Z,19.95
2022-07-30T06:29:47.978Z,20.01
2022-07-30T06:32:15.826Z,20.07
2022-07-30T06:34:42.915Z,20.10
2022-07-30T06:37:10.675Z,20.13
2022-07-30T06:39:56.181Z,20.19
2022-07-30T06:42:45.994Z,20.28
2022-07-30T06:45:33.426Z,20.32
2022-07-30T06:48:20.441Z,20.37
2022-07-30T06:50:47.438Z,20.41
2022-07-30T06:53:14.157Z,20.48
2022-07-30T06:56:00.394Z,20.54
2022-07-30T06:58:34.981Z,20.59
2022-07-30T07:01:25.101Z,20.65
2022-07-30T07:03:53.355Z,20.70
2022-07-30T07:06:20.529Z,20.76
2022-07-30T07:08:47.627Z,20.80
2022-07-30T07:11:18.367Z,20.84
2022-07-30T07:13:50.139Z,20.91
2022-07-30T07:16:25.715Z,20.96
2022-07-30T07:18:55.898Z,21.01
2022-07-30T07:21:23.654Z,21.06
2022-07-30T07:23:53.091Z,21.12
2022-07-30T07:26:55.775Z,21.20
2022-07-30T07:29:22.542Z,21.24
2022-07-30T07:32:05.706Z,21.30
2022-07-30T07:34:34.593Z,21.38
2022-07-30T07:37:01.656Z,21.42
2022-07-30T07:39:31.967Z,21.49
2022-07-30T07:41:58.845Z,21.56
2022-07-30T07:44:28.866Z,21.61
2022-07-30T07:46:55.802Z,21.66
2022-07-30T07:49:25.997Z,21.74
2022-07-30T07:51:53.225Z,21.79
2022-07-30T07:54:22.872Z,21.84
2022-07-30T07:56:56.767Z,22.02
2022-07-30T07:59:41.731Z,22.02
2022-07-30T08:02:14.275Z,22.04
2022-07-30T08:04:54.412Z,22.14
2022-07-30T08:07:50.831Z,22.07
2022-07-30T08:10:36.718Z,22.06
2022-07-30T08:13:51.497Z,22.13
2022-07-30T08:16:38.609Z,22.22
2022-07-30T08:19:12.564Z,22.32
2022-07-30T08:21:43.231Z,22.42
2022-07-30T08:24:10.290Z,22.48
2022-07-30T08:26:37.503Z,22.55
2022-07-30T08:29:04.590Z,22.63
2022-07-30T08:31:33.404Z,22.69
2022-07-30T08:34:00.648Z,22.72
2022-07-30T08:36:28.134Z,22.80
2022-07-30T08:38:55.317Z,22.86
2022-07-30T08:41:24.855Z,22.89
2022-07-30T08:43:51.967Z,22.93
2022-07-30T08:46:25.158Z,23.00
2022-07-30T08:49:11.204Z,23.12
2022-07-30T08:51:40.098Z,23.18
2022-07-30T08:54:29.599Z,23.35
2022-07-30T08:56:58.498Z,23.34
2022-07-30T08:59:25.442Z,23.37
2022-07-30T09:02:12.997Z,23.41
2022-07-30T09:04:54.991Z,23.47
2022-07-30T09:07:21.925Z,23.52
2022-07-30T09:09:48.640Z,23.57
2022-07-30T09:12:37.620Z,23.61
2022-07-30T09:15:08.295Z,23.64
2022-07-30T09:17:52.026Z,23.66
2022-07-30T09:20:20.642Z,23.70
2022-07-30T09:22:50.148Z,23.70
2022-07-30T09:25:44.209Z,23.73
2022-07-30T09:28:33.154Z,23.83
2022-07-30T09:31:15.970Z,23.87
2022-07-30T09:34:24.186Z,23.92
2022-07-30T09:37:01.889Z,23.98
2022-07-30T09:40:18.370Z,23.98
2022-07-30T09:43:08.577Z,23.98
2022-07-30T09:45:57.498Z,23.99
2022-07-30T09:48:26.843Z,24.05
2022-07-30T09:50:54.678Z,24.06
2022-07-30T09:53:24.625Z,24.08
2022-07-30T09:55:51.372Z,24.09
2022-07-30T09:58:26.592Z,24.12
2022-07-30T10:00:57.931Z,24.16
2022-07-30T10:03:47.963Z,24.22
2022-07-30T10:06:35.218Z,24.21
2022-07-30T10:09:14.284Z,24.24
2022-07-30T10:11:48.526Z,24.27
2022-07-30T10:14:15.903Z,24.35
2022-07-30T10:16:42.797Z,24.43
2022-07-30T10:19:15.970Z,24.49
2022-07-30T10:22:01.513Z,24.54
2022-07-30T10:24:49.175Z,24.61
2022-07-30T10:27:34.899Z,24.65
2022-07-30T10:30:08.030Z,24.66
2022-07-30T10:32:42.248Z,24.66
2022-07-30T10:35:09.673Z,24.72
2022-07-30T10:37:39.387Z,24.74
2022-07-30T10:40:16.190Z,24.76
2022-07-30T10:43:15.162Z,24.80
2022-07-30T10:46:21.311Z,24.86
2022-07-30T10:48:49.094Z,24.94
2022-07-30T10:51:18.525Z,24.98
2022-07-30T10:53:52.449Z,25.06
2022-07-30T10:56:25.758Z,25.13
2022-07-30T10:59:07.954Z,25.17
2022-07-30T11:01:48.774Z,25.20
2022-07-30T11:04:29.448Z,25.22
2022-07-30T11:07:24.020Z,25.25
2022-07-30T11:10:08.666Z,25.34
2022-07-30T11:12:42.395Z,25.44
2022-07-30T11:15:19.301Z,25.52
2022-07-30T11:18:13.013Z,25.59
2022-07-30T11:20:41.110Z,25.63
2022-07-30T11:23:20.626Z,25.65
2022-07-30T11:25:51.414Z,25.70
2022-07-30T11:28:49.443Z,25.69
2022-07-30T11:31:56.290Z,25.69
2022-07-30T11:34:18.280Z,25.72
2022-07-30T11:37:21.506Z,25.71
2022-07-30T11:39:55.166Z,25.72
2022-07-30T11:42:29.566Z,25.69
2022-07-30T11:45:23.270Z,25.70
2022-07-30T11:47:51.750Z,25.72
2022-07-30T11:50:20.042Z,25.75
2022-07-30T11:53:04.147Z,25.81
2022-07-30T11:55:39.527Z,25.89
2022-07-30T11:58:08.743Z,25.94
2022-07-30T12:00:48.057Z,25.96
2022-07-30T12:03:20.206Z,26.00
2022-07-30T12:05:52.540Z,26.03
2022-07-30T12:08:35.982Z,26.04
2022-07-30T12:11:03.472Z,26.04
2022-07-30T12:13:45.292Z,26.03
2022-07-30T12:16:18.087Z,26.10
2022-07-30T12:18:46.691Z,26.16
2022-07-30T12:21:16.038Z,26.23
2022-07-30T12:23:51.771Z,26.34
2022-07-30T12:26:29.401Z,26.42
2022-07-30T12:28:57.802Z,26.49
2022-07-30T12:31:24.821Z,26.52
2022-07-30T12:33:51.665Z,26.51
2022-07-30T12:36:31.132Z,26.49
2022-07-30T12:38:58.770Z,26.49
2022-07-30T12:41:47.391Z,26.48
2022-07-30T12:44:36.320Z,26.48
2022-07-30T12:47:05.501Z,26.45
2022-07-30T12:49:39.179Z,26.47
2022-07-30T12:52:28.214Z,26.57
2022-07-30T12:54:59.324Z,26.51
2022-07-30T12:57:26.071Z,26.48
2022-07-30T13:00:07.319Z,26.44
2022-07-30T13:02:35.198Z,26.46
2022-07-30T13:05:11.584Z,26.45
2022-07-30T13:07:58.711Z,26.43
2022-07-30T13:10:30.448Z,26.44
2022-07-30T13:12:58.487Z,26.44
2022-07-30T13:15:26.594Z,26.45
2022-07-30T13:17:53.418Z,26.46
2022-07-30T13:20:20.967Z,26.46
2022-07-30T13:22:47.920Z,26.46
2022-07-30T13:25:14.613Z,26.46
2022-07-30T13:27:41.395Z,26.50
2022-07-30T13:30:08.852Z,26.51
2022-07-30T13:32:35.720Z,26.54
2022-07-30T13:35:03.106Z,26.55
2022-07-30T13:37:38.426Z,26.56
2022-07-30T13:40:06.517Z,26.56
2022-07-30T13:42:33.242Z,26.57
2022-07-30T13:45:00.180Z,26.56
2022-07-30T13:47:26.852Z,26.57
2022-07-30T13:49:53.637Z,26.56
2022-07-30T13:52:20.270Z,26.58
2022-07-30T13:54:47.099Z,26.62
2022-07-30T13:57:13.825Z,26.64
2022-07-30T13:59:40.575Z,26.67
2022-07-30T14:02:07.413Z,26.65
2022-07-30T14:04:34.127Z,26.67
2022-07-30T14:07:01.208Z,26.70
2022-07-30T14:09:28.325Z,26.69
2022-07-30T14:11:55.055Z,26.71
2022-07-30T14:14:22.561Z,26.71
2022-07-30T14:16:53.869Z,26.71
2022-07-30T14:19:24.345Z,26.73
2022-07-30T14:21:52.961Z,26.71
2022-07-30T14:24:20.571Z,26.72
2022-07-30T14:26:47.640Z,26.75
2022-07-30T14:29:14.297Z,26.74
2022-07-30T14:31:41.045Z,26.76
2022-07-30T14:34:08.069Z,26.80
2022-07-30T14:36:37.210Z,26.82
2022-07-30T14:39:04.879Z,26.82
2022-07-30T14:41:32.174Z,26.85
2022-07-30T14:43:58.865Z,26.87
2022-07-30T14:46:25.569Z,26.89
2022-07-30T14:48:52.475Z,26.92
2022-07-30T14:51:24.259Z,26.92
2022-07-30T14:53:53.192Z,26.93
2022-07-30T14:56:21.391Z,26.89
2022-07-30T14:58:48.193Z,26.92
2022-07-30T15:01:16.283Z,26.93
2022-07-30T15:03:45.299Z,26.96
2022-07-30T15:06:14.874Z,26.98
2022-07-30T15:08:42.509Z,27.01
2022-07-30T15:11:09.727Z,27.02
2022-07-30T15:13:37.118Z,27.03
2022-07-30T15:16:07.253Z,27.02
2022-07-30T15:18:33.974Z,27.02
2022-07-30T15:21:00.666Z,27.04
2022-07-30T15:23:27.413Z,27.05
2022-07-30T15:25:54.118Z,27.08
2022-07-30T15:28:20.805Z,27.12
2022-07-30T15:30:47.597Z,27.13
2022-07-30T15:33:14.239Z,27.13
2022-07-30T15:35:41.442Z,27.10
2022-07-30T15:38:08.134Z,27.11
2022-07-30T15:40:34.920Z,27.12
2022-07-30T15:43:01.689Z,27.14
2022-07-30T15:45:50.115Z,27.13
2022-07-30T15:48:24.491Z,27.15
2022-07-30T15:51:00.713Z,27.15
2022-07-30T15:53:27.663Z,27.13
2022-07-30T15:55:54.338Z,27.13
2022-07-30T15:58:21.073Z,27.13
2022-07-30T16:00:47.803Z,27.12
2022-07-30T16:03:14.510Z,27.14
2022-07-30T16:05:51.113Z,27.17
2022-07-30T16:08:22.261Z,27.18
2022-07-30T16:10:49.693Z,27.21
2022-07-30T16:13:16.462Z,27.22
2022-07-30T16:15:43.261Z,27.25
2022-07-30T16:18:10.470Z,27.26
2022-07-30T16:20:37.379Z,27.28
2022-07-30T16:23:04.984Z,27.31
2022-07-30T16:25:33.811Z,27.40
2022-07-30T16:28:00.459Z,27.51
2022-07-30T16:30:27.547Z,27.64
2022-07-30T16:32:56.444Z,27.73
2022-07-30T16:35:23.444Z,27.76
2022-07-30T16:37:50.223Z,27.75
2022-07-30T16:40:16.998Z,27.72
2022-07-30T16:42:43.738Z,27.71
2022-07-30T16:45:11.026Z,27.69
2022-07-30T16:47:37.784Z,27.69
2022-07-30T16:50:04.962Z,27.68
2022-07-30T16:52:31.637Z,27.67
2022-07-30T16:54:58.365Z,27.66
2022-07-30T16:57:25.006Z,27.64
2022-07-30T16:59:51.682Z,27.64
2022-07-30T17:02:18.345Z,27.65
2022-07-30T17:04:45.121Z,27.68
2022-07-30T17:07:11.737Z,27.73
2022-07-30T17:09:38.470Z,27.77
2022-07-30T17:12:12.016Z,27.81
2022-07-30T17:14:43.341Z,27.85
2022-07-30T17:17:14.162Z,27.90
2022-07-30T17:19:42.650Z,27.91
2022-07-30T17:22:09.315Z,27.91
2022-07-30T17:24:36.065Z,27.90
2022-07-30T17:27:02.916Z,27.87
2022-07-30T17:29:29.815Z,27.86
2022-07-30T17:31:56.939Z,27.86
2022-07-30T17:34:23.927Z,27.89
2022-07-30T17:36:52.547Z,27.93
2022-07-30T17:40:26.410Z,27.96
2022-07-30T17:42:10.663Z,27.97
2022-07-30T17:44:40.250Z,27.96
2022-07-30T17:47:10.989Z,27.89
2022-07-30T17:49:41.061Z,27.85
2022-07-30T17:52:08.839Z,27.87
2022-07-30T17:54:35.851Z,27.83
2022-07-30T17:57:02.908Z,27.83
2022-07-30T17:59:29.735Z,27.82
2022-07-30T18:01:56.517Z,27.84
2022-07-30T18:04:23.365Z,27.86
2022-07-30T18:06:50.739Z,27.83
2022-07-30T18:09:17.709Z,27.80
2022-07-30T18:11:45.691Z,27.77
2022-07-30T18:14:12.850Z,27.76
2022-07-30T18:16:39.637Z,27.77
2022-07-30T18:19:07.040Z,27.78
2022-07-30T18:21:35.944Z,27.76
2022-07-30T18:24:06.205Z,27.77
2022-07-30T18:26:38.417Z,27.77
2022-07-30T18:29:06.436Z,27.76
2022-07-30T18:31:35.522Z,27.75
2022-07-30T18:34:02.296Z,27.71
2022-07-30T18:36:29.117Z,27.66
2022-07-30T18:38:56.034Z,27.63
2022-07-30T18:41:24.005Z,27.56
2022-07-30T18:43:50.980Z,27.50
2022-07-30T18:46:17.840Z,27.43
2022-07-30T18:48:45.029Z,27.37
2022-07-30T18:51:14.117Z,27.29
2022-07-30T18:53:42.260Z,27.19
2022-07-30T18:56:09.313Z,27.09
2022-07-30T18:58:37.969Z,27.01
2022-07-30T19:01:05.140Z,26.88
2022-07-30T19:03:31.960Z,26.78
2022-07-30T19:05:58.983Z,26.70
2022-07-30T19:08:26.113Z,26.67
2022-07-30T19:10:52.883Z,26.57
2022-07-30T19:13:19.964Z,26.51
2022-07-30T19:15:47.337Z,26.41
2022-07-30T19:18:14.120Z,26.34
2022-07-30T19:20:41.363Z,26.29
2022-07-30T19:23:08.327Z,26.21
2022-07-30T19:25:36.897Z,26.12
2022-07-30T19:28:04.788Z,26.05
2022-07-30T19:30:33.075Z,25.97
2022-07-30T19:33:05.399Z,25.94
2022-07-30T19:35:32.941Z,25.89
2022-07-30T19:38:00.247Z,25.82
2022-07-30T19:40:27.114Z,25.73
2022-07-30T19:42:55.786Z,25.60
2022-07-30T19:45:23.908Z,25.52
2022-07-30T19:47:50.821Z,25.48
2022-07-30T19:50:17.888Z,25.45
2022-07-30T19:52:51.433Z,25.42
2022-07-30T19:55:34.953Z,25.35
2022-07-30T19:58:16.276Z,25.28
2022-07-30T20:00:49.407Z,25.16
2022-07-30T20:03:25.318Z,25.11
2022-07-30T20:05:57.568Z,25.06
2022-07-30T20:08:26.257Z,24.98
2022-07-30T20:10:53.287Z,24.87
2022-07-30T20:13:20.019Z,24.83
2022-07-30T20:15:49.621Z,24.76
2022-07-30T20:18:29.263Z,24.74
2022-07-30T20:20:56.283Z,24.69
2022-07-30T20:23:25.209Z,24.66
2022-07-30T20:25:52.383Z,24.67
2022-07-30T20:28:21.121Z,24.67
2022-07-30T20:30:49.016Z,24.61
2022-07-30T20:33:16.699Z,24.56
2022-07-30T20:36:02.738Z,24.46
2022-07-30T20:38:30.359Z,24.38
2022-07-30T20:40:57.482Z,24.38
2022-07-30T20:43:24.166Z,24.28
2022-07-30T20:45:54.351Z,24.29
2022-07-30T20:48:25.332Z,24.27
2022-07-30T20:50:52.668Z,24.30
2022-07-30T20:53:19.866Z,24.25
2022-07-30T20:55:47.581Z,24.21
2022-07-30T20:58:16.772Z,24.18
2022-07-30T21:00:49.745Z,24.23
2022-07-30T21:03:21.827Z,24.11
2022-07-30T21:05:49.214Z,24.11
2022-07-30T21:08:19.981Z,24.07
2022-07-30T21:10:46.859Z,24.05
2022-07-30T21:13:13.851Z,23.95
2022-07-30T21:15:45.420Z,23.90
2022-07-30T21:18:27.894Z,23.89
2022-07-30T21:20:54.569Z,23.84
2022-07-30T21:23:23.938Z,23.79
2022-07-30T21:26:00.752Z,23.76
2022-07-30T21:28:35.182Z,23.69
2022-07-30T21:31:03.876Z,23.58
2022-07-30T21:33:35.024Z,23.49
2022-07-30T21:36:01.672Z,23.42
2022-07-30T21:38:28.723Z,23.37
2022-07-30T21:40:57.811Z,23.30
2022-07-30T21:43:29.939Z,23.24
2022-07-30T21:45:58.463Z,23.23
2022-07-30T21:48:26.246Z,23.25
2022-07-30T21:50:54.437Z,23.27
2022-07-30T21:53:29.693Z,23.25
2022-07-30T21:56:08.974Z,23.25
2022-07-30T21:58:35.645Z,23.16
2022-07-30T22:01:16.776Z,23.07
2022-07-30T22:04:04.805Z,23.00
2022-07-30T22:06:39.907Z,22.96
2022-07-30T22:09:19.061Z,22.87
2022-07-30T22:11:55.694Z,22.80
2022-07-30T22:14:22.530Z,22.74
2022-07-30T22:16:49.870Z,22.73
2022-07-30T22:19:17.294Z,22.70
2022-07-30T22:21:46.456Z,22.66
2022-07-30T22:24:29.036Z,22.63
2022-07-30T22:27:01.130Z,22.65
2022-07-30T22:29:33.708Z,22.57
2022-07-30T22:32:04.061Z,22.52
2022-07-30T22:34:31.754Z,22.48
2022-07-30T22:36:58.846Z,22.49
2022-07-30T22:39:32.200Z,22.46
2022-07-30T22:42:12.937Z,22.38
2022-07-30T22:44:39.712Z,22.31
2022-07-30T22:47:18.766Z,22.23
2022-07-30T22:49:54.854Z,22.19
2022-07-30T22:52:25.885Z,22.13
2022-07-30T22:55:11.783Z,22.07
2022-07-30T22:57:40.254Z,22.00
2022-07-30T23:00:11.435Z,21.95
2022-07-30T23:02:40.106Z,21.93
2022-07-30T23:05:08.117Z,21.89
2022-07-30T23:07:39.568Z,21.92
2022-07-30T23:10:17.379Z,21.91
2022-07-30T23:12:55.519Z,21.87
2022-07-30T23:15:22.816Z,21.81
2022-07-30T23:17:49.518Z,21.77
2022-07-30T23:20:18.191Z,21.73
2022-07-30T23:22:44.922Z,21.67
2022-07-30T23:25:12.014Z,21.63
2022-07-30T23:27:39.669Z,21.57
2022-07-30T23:30:10.742Z,21.57
2022-07-30T23:32:38.187Z,21.54
2022-07-30T23:35:06.325Z,21.57
2022-07-30T23:37:48.750Z,21.59
2022-07-30T23:40:19.529Z,21.55
2022-07-30T23:42:46.741Z,21.59
2022-07-30T23:45:13.906Z,21.56
2022-07-30T23:47:54.683Z,21.48
2022-07-30T23:50:27.915Z,21.38
2022-07-30T23:52:54.646Z,21.33
2022-07-30T23:55:21.414Z,21.34
2022-07-30T23:57:48.138Z,21.34
